Time;durP1;ratioP1;P1;durP2;ratioP2;P2;SDS_P1;SDS_P2;PMS_P1;PMS_P2;Temp;Humidity;BMP_temperature;BMP_pressure;BME280_temperature;BME280_humidity;BME280_pressure;Samples;Min_cycle;Max_cycle;Signal;HPM_P1;HPM_P2
2022/06/27 00:02:05;;;;;;;9.60;6.17;;;18.90;99.90;;;;;;5084188;28;20304;-82
2022/06/27 00:04:33;;;;;;;7.07;6.37;;;18.90;99.90;;;;;;5089141;28;20199;-82
2022/06/27 00:07:00;;;;;;;9.80;6.40;;;18.90;99.90;;;;;;5082589;28;20207;-81
2022/06/27 00:09:27;;;;;;;10.83;6.30;;;18.90;99.90;;;;;;5082682;28;20225;-82
2022/06/27 00:11:55;;;;;;;9.93;6.33;;;18.80;99.90;;;;;;5082590;28;20216;-82
2022/06/27 00:14:22;;;;;;;10.23;6.97;;;18.80;99.90;;;;;;5084587;28;20191;-82
2022/06/27 00:16:49;;;;;;;10.97;7.10;;;18.80;99.90;;;;;;5081631;28;20198;-82
2022/06/27 00:19:17;;;;;;;10.23;6.33;;;18.80;99.90;;;;;;5084169;28;20806;-82
2022/06/27 00:21:44;;;;;;;9.67;6.70;;;18.80;99.90;;;;;;5084859;28;20338;-82
2022/06/27 00:24:11;;;;;;;10.90;7.23;;;18.80;99.90;;;;;;5081929;28;20232;-82
2022/06/27 00:26:38;;;;;;;8.40;6.10;;;18.80;99.90;;;;;;5081186;28;20586;-81
2022/06/27 00:29:05;;;;;;;9.13;7.13;;;18.80;99.90;;;;;;5082625;28;20226;-82
2022/06/27 00:31:32;;;;;;;7.40;6.67;;;18.80;99.90;;;;;;5082394;28;20199;-82
2022/06/27 00:33:59;;;;;;;10.80;7.97;;;18.70;99.90;;;;;;5086555;28;20215;-82
2022/06/27 00:36:26;;;;;;;9.77;6.43;;;18.80;99.90;;;;;;5081905;28;20256;-82
2022/06/27 00:38:52;;;;;;;7.27;6.57;;;18.70;99.90;;;;;;5081336;28;20211;-82
2022/06/27 00:41:19;;;;;;;9.07;7.27;;;18.80;99.90;;;;;;5086383;28;20210;-82
2022/06/27 00:43:46;;;;;;;7.53;6.60;;;18.80;99.90;;;;;;5082841;28;20641;-82
2022/06/27 00:46:13;;;;;;;11.17;8.10;;;18.80;99.90;;;;;;5082787;28;20264;-82
2022/06/27 00:48:41;;;;;;;8.57;6.83;;;18.60;99.90;;;;;;5085179;28;20223;-82
2022/06/27 00:51:10;;;;;;;8.50;7.53;;;18.60;99.90;;;;;;5082924;28;20252;-82
2022/06/27 00:53:38;;;;;;;9.77;7.23;;;18.60;99.90;;;;;;5083566;28;20321;-82
2022/06/27 00:56:05;;;;;;;7.10;6.37;;;18.60;99.90;;;;;;5083339;28;20237;-82
2022/06/27 00:58:32;;;;;;;10.70;6.83;;;18.70;99.90;;;;;;5101804;28;20226;-82
2022/06/27 01:00:59;;;;;;;10.13;6.93;;;18.70;99.90;;;;;;5084846;28;20680;-82
2022/06/27 01:03:26;;;;;;;10.87;7.37;;;18.80;99.90;;;;;;5083356;28;20244;-82
2022/06/27 01:05:53;;;;;;;11.37;6.60;;;18.80;99.90;;;;;;5081595;28;20299;-82
2022/06/27 01:08:21;;;;;;;11.37;6.77;;;18.80;99.90;;;;;;5083915;28;20264;-82
2022/06/27 01:10:49;;;;;;;10.43;7.63;;;18.70;99.90;;;;;;5082470;28;20283;-82
2022/06/27 01:13:16;;;;;;;9.13;7.33;;;18.70;99.90;;;;;;5080134;28;20200;-82
2022/06/27 01:15:45;;;;;;;8.73;7.53;;;18.70;99.90;;;;;;5080466;28;20223;-82
2022/06/27 01:18:13;;;;;;;7.57;6.50;;;18.70;99.90;;;;;;5086363;28;20204;-82
2022/06/27 01:20:45;;;;;;;10.47;7.57;;;18.70;99.90;;;;;;5081560;28;20248;-82
2022/06/27 01:23:13;;;;;;;11.33;7.50;;;18.70;99.90;;;;;;5081704;28;20237;-82
2022/06/27 01:25:40;;;;;;;8.97;7.13;;;18.70;99.90;;;;;;5085261;28;20598;-82
2022/06/27 01:28:09;;;;;;;10.20;7.73;;;18.70;99.90;;;;;;5084128;28;20653;-82
2022/06/27 01:30:36;;;;;;;8.37;7.43;;;18.70;99.90;;;;;;5102130;28;20606;-81
2022/06/27 01:33:03;;;;;;;11.10;7.30;;;18.60;99.90;;;;;;5080324;28;20197;-82
2022/06/27 01:35:30;;;;;;;8.67;7.33;;;18.70;99.90;;;;;;5081195;28;20191;-82
2022/06/27 01:37:57;;;;;;;8.63;6.70;;;18.70;99.90;;;;;;5084080;28;20199;-82
2022/06/27 01:40:26;;;;;;;9.67;7.87;;;18.70;99.90;;;;;;5086307;28;20729;-81
2022/06/27 01:42:55;;;;;;;10.03;7.60;;;18.70;99.90;;;;;;5080836;28;20599;-82
2022/06/27 01:45:22;;;;;;;8.30;7.40;;;18.80;99.90;;;;;;5085615;28;20612;-82
2022/06/27 01:47:49;;;;;;;9.77;8.03;;;18.70;99.90;;;;;;5083050;28;20234;-81
2022/06/27 01:50:19;;;;;;;9.73;8.10;;;18.80;99.90;;;;;;5083744;28;20265;-82
2022/06/27 01:52:49;;;;;;;9.77;8.40;;;18.80;99.90;;;;;;5082438;28;20238;-82
2022/06/27 01:55:16;;;;;;;12.23;8.87;;;18.70;99.90;;;;;;5084208;28;20217;-82
2022/06/27 01:57:45;;;;;;;10.70;8.37;;;18.70;99.90;;;;;;5082261;28;20653;-82
2022/06/27 02:00:14;;;;;;;14.07;7.97;;;18.70;99.90;;;;;;5084333;28;20191;-82
2022/06/27 02:02:43;;;;;;;11.73;8.70;;;18.70;99.90;;;;;;5081994;28;20203;-82
2022/06/27 02:05:10;;;;;;;9.80;8.10;;;18.60;99.90;;;;;;5084602;28;20952;-82
2022/06/27 02:07:39;;;;;;;10.97;8.80;;;18.60;99.90;;;;;;5084995;28;20211;-82
2022/06/27 02:10:07;;;;;;;12.60;8.10;;;18.60;99.90;;;;;;5083367;28;20212;-81
2022/06/27 02:12:34;;;;;;;11.13;8.17;;;18.60;99.90;;;;;;5082994;28;20841;-82
2022/06/27 02:15:01;;;;;;;10.87;8.50;;;18.70;99.90;;;;;;5084474;28;20355;-82
2022/06/27 02:17:28;;;;;;;9.33;7.87;;;18.70;99.90;;;;;;5085866;28;20247;-81
2022/06/27 02:19:55;;;;;;;10.03;8.10;;;18.70;99.90;;;;;;5085539;28;20673;-82
2022/06/27 02:22:22;;;;;;;10.77;8.07;;;18.70;99.90;;;;;;5082533;28;20650;-82
2022/06/27 02:24:49;;;;;;;8.93;7.90;;;18.60;99.90;;;;;;5083130;28;20207;-83
2022/06/27 02:27:17;;;;;;;12.77;7.77;;;18.60;99.90;;;;;;5085715;28;20230;-82
2022/06/27 02:29:43;;;;;;;8.97;7.90;;;18.70;99.90;;;;;;5084246;28;20693;-82
2022/06/27 02:32:11;;;;;;;8.70;7.73;;;18.70;99.90;;;;;;5082283;28;20278;-83
2022/06/27 02:34:38;;;;;;;9.60;7.60;;;18.70;99.90;;;;;;5082573;28;21408;-83
2022/06/27 02:37:06;;;;;;;10.60;8.00;;;18.70;99.90;;;;;;5080832;28;20215;-83
2022/06/27 02:39:36;;;;;;;11.23;8.20;;;18.60;99.90;;;;;;5083182;28;20205;-82
2022/06/27 02:42:06;;;;;;;9.80;7.80;;;18.60;99.90;;;;;;5084726;28;20195;-82
2022/06/27 02:44:34;;;;;;;11.87;8.53;;;18.60;99.90;;;;;;5083303;28;20205;-82
2022/06/27 02:47:02;;;;;;;9.37;8.10;;;18.60;99.90;;;;;;5082696;28;20629;-82
2022/06/27 02:49:29;;;;;;;10.80;9.00;;;18.70;99.90;;;;;;5083443;28;20241;-82
2022/06/27 02:52:22;;;;;;;12.10;7.87;;;18.60;99.90;;;;;;5082926;28;20203;-83
2022/06/27 02:55:03;;;;;;;9.13;7.43;;;18.70;99.90;;;;;;5081332;28;20557;-82
2022/06/27 02:57:56;;;;;;;9.73;7.73;;;18.60;99.90;;;;;;5088909;28;20476;-82
2022/06/27 03:00:29;;;;;;;7.90;7.10;;;18.60;99.90;;;;;;5091237;28;20214;-82
2022/06/27 03:02:58;;;;;;;11.43;8.20;;;18.60;99.90;;;;;;5090338;28;20207;-82
2022/06/27 03:05:25;;;;;;;10.43;7.93;;;18.50;99.90;;;;;;5103649;28;20308;-82
2022/06/27 03:07:52;;;;;;;12.93;8.20;;;18.40;99.90;;;;;;5087704;28;20198;-82
2022/06/27 03:10:20;;;;;;;8.63;7.40;;;18.40;99.90;;;;;;5093429;28;20551;-82
2022/06/27 03:12:47;;;;;;;11.37;8.27;;;18.40;99.90;;;;;;5088783;28;20230;-82
2022/06/27 03:15:14;;;;;;;9.30;7.93;;;18.30;99.90;;;;;;5084252;28;20203;-82
2022/06/27 03:17:41;;;;;;;11.07;7.90;;;18.40;99.90;;;;;;5090340;28;20203;-82
2022/06/27 03:20:08;;;;;;;11.67;7.73;;;18.30;99.90;;;;;;5083873;28;20213;-82
2022/06/27 03:22:35;;;;;;;8.37;7.50;;;18.20;99.90;;;;;;5085780;28;20225;-81
2022/06/27 03:25:02;;;;;;;11.23;7.87;;;18.20;99.90;;;;;;5102486;28;20240;-81
2022/06/27 03:27:29;;;;;;;11.63;7.83;;;18.30;99.90;;;;;;5083603;28;20196;-82
2022/06/27 03:29:56;;;;;;;8.63;7.10;;;18.20;99.90;;;;;;5083897;28;20230;-81
2022/06/27 03:32:23;;;;;;;10.57;7.63;;;18.30;99.90;;;;;;5080572;28;20198;-81
2022/06/27 03:34:50;;;;;;;9.60;8.60;;;18.20;99.90;;;;;;5080781;28;20231;-82
2022/06/27 03:37:17;;;;;;;12.83;8.93;;;18.10;99.90;;;;;;5083637;28;20202;-81
2022/06/27 03:39:44;;;;;;;9.87;8.13;;;18.20;99.90;;;;;;5065144;28;20222;-82
2022/06/27 03:42:11;;;;;;;11.33;7.90;;;18.10;99.90;;;;;;5082125;28;20230;-82
2022/06/27 03:44:37;;;;;;;9.43;8.43;;;18.20;99.90;;;;;;5075977;28;20213;-82
2022/06/27 03:47:04;;;;;;;11.00;9.17;;;18.20;99.90;;;;;;5078481;28;20309;-82
2022/06/27 03:52:16;;;;;;;11.23;8.80;;;18.00;99.90;;;;;;5082481;28;20214;-81
2022/06/27 03:54:43;;;;;;;9.87;8.47;;;18.00;99.90;;;;;;5083342;28;20210;-82
2022/06/27 03:57:10;;;;;;;10.17;8.50;;;17.90;99.90;;;;;;5079009;28;20203;-82
2022/06/27 03:59:37;;;;;;;10.30;9.17;;;18.00;99.90;;;;;;5081026;28;20947;-82
2022/06/27 04:02:04;;;;;;;11.43;8.77;;;17.90;99.90;;;;;;5080699;28;20226;-82
2022/06/27 04:04:31;;;;;;;10.67;9.33;;;17.80;99.90;;;;;;5085297;28;20206;-82
2022/06/27 04:07:00;;;;;;;10.90;9.27;;;17.80;99.90;;;;;;5088028;28;20221;-81
2022/06/27 04:09:27;;;;;;;11.53;9.90;;;17.60;99.90;;;;;;5086140;28;20249;-82
2022/06/27 04:11:54;;;;;;;11.27;8.57;;;17.50;99.90;;;;;;5081116;28;20203;-82
2022/06/27 04:14:20;;;;;;;13.10;9.53;;;17.40;99.90;;;;;;5086343;28;20199;-82
2022/06/27 04:16:47;;;;;;;10.37;9.27;;;17.30;99.90;;;;;;5084718;28;20199;-82
2022/06/27 04:19:14;;;;;;;12.20;9.03;;;17.30;99.90;;;;;;5086506;28;20201;-82
2022/06/27 04:21:41;;;;;;;10.93;9.63;;;17.40;99.90;;;;;;5083535;28;20259;-82
2022/06/27 04:24:08;;;;;;;11.70;9.30;;;17.70;99.90;;;;;;5084146;28;20248;-81
2022/06/27 04:26:35;;;;;;;10.90;9.27;;;17.60;99.90;;;;;;5084223;28;20229;-82
2022/06/27 04:29:02;;;;;;;12.57;8.57;;;17.80;99.90;;;;;;5089609;28;20549;-81
2022/06/27 04:31:30;;;;;;;11.53;9.70;;;17.90;99.90;;;;;;5084483;28;20703;-82
2022/06/27 04:33:57;;;;;;;12.20;9.33;;;18.00;99.90;;;;;;5086879;28;20529;-82
2022/06/27 04:36:25;;;;;;;13.30;9.27;;;18.10;99.90;;;;;;5083948;28;21517;-82
2022/06/27 04:38:53;;;;;;;11.17;9.80;;;18.10;99.90;;;;;;5083819;28;20237;-82
2022/06/27 04:41:20;;;;;;;14.00;9.87;;;18.20;99.90;;;;;;5079851;28;20197;-83
2022/06/27 04:43:47;;;;;;;11.67;10.47;;;18.20;99.90;;;;;;5086928;28;20209;-83
2022/06/27 04:46:14;;;;;;;10.43;9.30;;;18.30;99.90;;;;;;5085566;28;20210;-82
2022/06/27 04:48:41;;;;;;;9.73;8.53;;;18.20;99.90;;;;;;5087360;28;20207;-82
2022/06/27 04:51:09;;;;;;;10.67;9.57;;;18.20;99.90;;;;;;5084175;28;20346;-82
2022/06/27 04:53:37;;;;;;;13.53;9.93;;;18.30;99.90;;;;;;5087103;28;20234;-82
2022/06/27 04:56:06;;;;;;;11.93;9.73;;;18.30;99.90;;;;;;5096767;28;20229;-82
2022/06/27 04:58:33;;;;;;;14.80;10.07;;;18.20;99.90;;;;;;5082595;28;20206;-82
2022/06/27 05:01:00;;;;;;;10.83;9.47;;;18.10;99.90;;;;;;5083018;28;20250;-82
2022/06/27 05:03:27;;;;;;;13.07;10.27;;;18.10;99.90;;;;;;5086982;28;20213;-81
2022/06/27 05:05:54;;;;;;;13.40;10.33;;;18.30;99.90;;;;;;5087285;28;20262;-82
2022/06/27 05:08:21;;;;;;;12.73;9.93;;;18.40;99.90;;;;;;5087497;28;20240;-82
2022/06/27 05:10:48;;;;;;;12.03;9.87;;;18.40;99.90;;;;;;5086620;28;20217;-82
2022/06/27 05:13:15;;;;;;;13.40;10.23;;;18.50;99.90;;;;;;5081262;28;20668;-83
2022/06/27 05:15:42;;;;;;;16.60;10.43;;;18.50;99.90;;;;;;5084261;28;20301;-83
2022/06/27 05:18:09;;;;;;;11.67;9.87;;;18.50;99.90;;;;;;5081898;28;20676;-82
2022/06/27 05:20:36;;;;;;;13.23;10.83;;;18.50;99.90;;;;;;5085513;28;20672;-82
2022/06/27 05:23:02;;;;;;;13.33;10.43;;;18.40;99.90;;;;;;5082458;28;20215;-82
2022/06/27 05:25:30;;;;;;;11.80;10.30;;;18.50;99.90;;;;;;5082181;28;20234;-82
2022/06/27 05:27:58;;;;;;;13.83;10.87;;;18.50;99.90;;;;;;5083129;28;20214;-82
2022/06/27 05:30:25;;;;;;;15.00;10.90;;;18.40;99.90;;;;;;5086472;28;20206;-82
2022/06/27 05:32:51;;;;;;;13.80;10.27;;;18.40;99.90;;;;;;5068433;28;20249;-82
2022/06/27 05:35:20;;;;;;;13.90;10.37;;;18.50;99.90;;;;;;5086063;28;20194;-82
2022/06/27 05:37:48;;;;;;;14.80;10.27;;;18.50;99.90;;;;;;5081496;28;20237;-82
2022/06/27 05:40:16;;;;;;;13.23;10.53;;;18.50;99.90;;;;;;5081305;28;20252;-82
2022/06/27 05:42:43;;;;;;;15.20;11.23;;;18.40;99.90;;;;;;5099513;28;20207;-81
2022/06/27 05:45:10;;;;;;;16.77;10.90;;;18.20;99.90;;;;;;5070978;28;20207;-79
2022/06/27 05:47:37;;;;;;;12.30;10.53;;;18.20;99.90;;;;;;5069238;28;20260;-84
2022/06/27 05:50:11;;;;;;;12.07;9.90;;;18.30;99.90;;;;;;5067964;28;20402;-86
2022/06/27 05:52:40;;;;;;;15.40;10.60;;;18.20;99.90;;;;;;5066699;28;20285;-85
2022/06/27 05:55:08;;;;;;;13.00;10.57;;;18.20;99.90;;;;;;5083475;28;20262;-84
2022/06/27 05:57:35;;;;;;;13.37;10.97;;;18.40;99.90;;;;;;5076369;28;20290;-81
2022/06/27 06:00:05;;;;;;;16.00;10.97;;;18.40;99.90;;;;;;5058337;28;20261;-83
2022/06/27 06:02:32;;;;;;;14.67;10.57;;;18.40;99.90;;;;;;5104448;27;20190;-84
2022/06/27 06:05:00;;;;;;;13.63;10.40;;;18.40;99.90;;;;;;5070692;28;20194;-82
2022/06/27 06:07:27;;;;;;;15.20;10.50;;;18.50;99.90;;;;;;5091350;28;20190;-84
2022/06/27 06:09:54;;;;;;;13.10;10.50;;;18.60;99.90;;;;;;5091517;28;20248;-84
2022/06/27 06:12:21;;;;;;;12.87;10.37;;;18.70;99.90;;;;;;5089486;28;20218;-83
2022/06/27 06:14:51;;;;;;;13.37;9.53;;;18.60;99.90;;;;;;5109918;27;20228;-83
2022/06/27 06:17:18;;;;;;;11.83;9.77;;;18.70;99.90;;;;;;5091491;28;20188;-84
2022/06/27 06:19:45;;;;;;;14.93;11.83;;;18.70;99.90;;;;;;5085230;28;20198;-81
2022/06/27 06:22:12;;;;;;;12.40;9.67;;;18.70;99.90;;;;;;5081816;28;20602;-83
2022/06/27 06:24:39;;;;;;;14.53;10.10;;;18.80;99.90;;;;;;5085624;28;20203;-83
2022/06/27 06:27:08;;;;;;;14.57;9.60;;;18.60;99.90;;;;;;5086382;28;20213;-84
2022/06/27 06:29:36;;;;;;;12.60;10.00;;;18.70;99.90;;;;;;5087806;28;20218;-84
2022/06/27 06:32:03;;;;;;;11.20;9.27;;;18.50;99.90;;;;;;5086893;28;20228;-84
2022/06/27 06:34:33;;;;;;;11.13;9.43;;;18.60;99.90;;;;;;5103150;28;20290;-84
2022/06/27 06:37:01;;;;;;;13.13;10.70;;;18.60;99.90;;;;;;5084079;28;20202;-84
2022/06/27 06:39:29;;;;;;;11.73;10.20;;;18.50;99.90;;;;;;5089854;28;20202;-84
2022/06/27 06:41:57;;;;;;;13.87;10.23;;;18.50;99.90;;;;;;5085771;28;20244;-83
2022/06/27 06:44:24;;;;;;;12.97;10.13;;;18.50;99.90;;;;;;5086636;28;20642;-83
2022/06/27 06:46:54;;;;;;;14.67;9.70;;;18.60;99.90;;;;;;5082234;28;20762;-83
2022/06/27 06:49:22;;;;;;;12.10;10.30;;;18.60;99.90;;;;;;5102795;28;20209;-83
2022/06/27 06:51:50;;;;;;;11.00;9.07;;;18.70;99.90;;;;;;5086836;28;20303;-83
2022/06/27 06:54:20;;;;;;;13.70;9.60;;;18.80;99.90;;;;;;5087350;28;20613;-82
2022/06/27 06:56:49;;;;;;;11.17;9.70;;;18.80;99.90;;;;;;5094676;28;20223;-82
2022/06/27 06:59:17;;;;;;;18.80;10.30;;;18.90;99.90;;;;;;5099093;28;20201;-83
2022/06/27 07:01:46;;;;;;;12.00;8.30;;;18.80;99.90;;;;;;5093115;28;20219;-82
2022/06/27 07:04:15;;;;;;;11.23;10.03;;;19.00;99.90;;;;;;5095186;28;20612;-85
2022/06/27 07:06:43;;;;;;;9.33;8.43;;;19.00;99.90;;;;;;5091325;28;20247;-84
2022/06/27 07:09:10;;;;;;;9.77;8.07;;;19.10;99.90;;;;;;5098331;28;20211;-83
2022/06/27 07:11:38;;;;;;;9.97;8.23;;;19.20;99.90;;;;;;5094004;28;20218;-83
2022/06/27 07:14:06;;;;;;;12.93;8.87;;;19.20;99.90;;;;;;5095950;28;20198;-88
2022/06/27 07:16:33;;;;;;;11.20;8.87;;;19.20;99.90;;;;;;5093572;28;20256;-84
2022/06/27 07:19:00;;;;;;;9.57;8.07;;;19.00;99.90;;;;;;5096885;28;20195;-83
2022/06/27 07:21:31;;;;;;;11.03;7.90;;;19.30;99.90;;;;;;5091948;28;20206;-84
2022/06/27 07:24:00;;;;;;;11.60;8.10;;;19.20;99.90;;;;;;5090507;28;20322;-84
2022/06/27 07:26:29;;;;;;;11.00;9.20;;;19.10;99.90;;;;;;5089057;28;20199;-86
2022/06/27 07:28:56;;;;;;;10.43;8.50;;;19.00;99.90;;;;;;5089252;28;20206;-84
2022/06/27 07:31:23;;;;;;;13.23;10.03;;;18.90;99.90;;;;;;5084992;28;20234;-85
2022/06/27 07:33:54;;;;;;;13.93;10.57;;;18.90;99.90;;;;;;5087287;28;20209;-84
2022/06/27 07:36:22;;;;;;;14.87;10.77;;;18.90;99.90;;;;;;5086984;28;20207;-85
2022/06/27 07:38:50;;;;;;;12.80;10.97;;;19.00;99.90;;;;;;5089682;28;20209;-84
2022/06/27 07:41:22;;;;;;;11.90;10.10;;;19.00;99.90;;;;;;5091871;28;20211;-84
2022/06/27 07:43:50;;;;;;;12.77;10.20;;;19.20;99.90;;;;;;5106363;28;20281;-84
2022/06/27 07:46:17;;;;;;;15.20;10.87;;;19.40;99.90;;;;;;5084117;28;20252;-85
2022/06/27 07:48:46;;;;;;;16.00;10.10;;;19.30;99.90;;;;;;5090193;28;20206;-83
2022/06/27 07:51:19;;;;;;;13.97;9.90;;;19.30;99.90;;;;;;5105856;28;20221;-84
2022/06/27 07:53:48;;;;;;;12.17;8.63;;;19.30;99.90;;;;;;5086265;28;20325;-84
2022/06/27 07:56:17;;;;;;;14.10;10.70;;;19.50;99.90;;;;;;5101628;28;20194;-84
2022/06/27 07:58:59;;;;;;;11.70;9.57;;;19.60;99.90;;;;;;5088566;28;20202;-84
2022/06/27 08:01:28;;;;;;;14.40;10.30;;;19.40;99.90;;;;;;5087434;28;20209;-83
2022/06/27 08:03:55;;;;;;;13.93;10.10;;;19.40;99.90;;;;;;5090492;28;20793;-83
2022/06/27 08:06:24;;;;;;;16.30;10.70;;;19.50;99.90;;;;;;5086267;28;20616;-83
2022/06/27 08:09:01;;;;;;;12.37;9.67;;;19.40;99.90;;;;;;5085334;28;20214;-83
2022/06/27 08:11:30;;;;;;;11.20;9.30;;;19.20;99.90;;;;;;5085102;28;20206;-84
2022/06/27 08:14:03;;;;;;;16.60;9.87;;;19.40;99.90;;;;;;5089010;28;20248;-84
2022/06/27 08:16:30;;;;;;;14.23;10.57;;;19.50;99.90;;;;;;5086581;28;20191;-84
2022/06/27 08:18:58;;;;;;;12.13;10.13;;;19.50;99.90;;;;;;5084741;28;20216;-85
2022/06/27 08:21:27;;;;;;;11.07;9.67;;;19.60;99.90;;;;;;5108987;27;20208;-84
2022/06/27 08:24:00;;;;;;;13.00;9.27;;;19.60;99.90;;;;;;5087331;28;20273;-85
2022/06/27 08:26:29;;;;;;;12.57;8.83;;;19.80;99.90;;;;;;5087173;28;20214;-84
2022/06/27 08:28:58;;;;;;;12.53;7.77;;;19.90;99.90;;;;;;5088220;28;20202;-85
2022/06/27 08:31:26;;;;;;;10.53;7.43;;;19.90;99.90;;;;;;5086529;28;20225;-85
2022/06/27 08:34:03;;;;;;;9.40;7.97;;;19.80;99.90;;;;;;5088324;28;20351;-84
2022/06/27 08:36:33;;;;;;;11.50;6.30;;;19.60;99.90;;;;;;5099842;28;20201;-84
2022/06/27 08:39:07;;;;;;;9.40;6.83;;;19.50;99.90;;;;;;5092089;28;20230;-84
2022/06/27 08:41:36;;;;;;;8.80;6.80;;;19.60;99.90;;;;;;5101228;28;20216;-82
2022/06/27 08:44:04;;;;;;;9.30;6.50;;;19.60;99.90;;;;;;5089269;28;20219;-84
2022/06/27 08:46:32;;;;;;;8.43;6.47;;;19.60;99.90;;;;;;5087255;28;20251;-85
2022/06/27 08:49:02;;;;;;;9.10;6.20;;;19.50;99.90;;;;;;5090839;28;20230;-84
2022/06/27 08:51:31;;;;;;;11.77;6.00;;;19.50;99.90;;;;;;5093368;28;20223;-84
2022/06/27 08:53:59;;;;;;;9.40;6.80;;;19.60;99.90;;;;;;5092574;28;20234;-84
2022/06/27 08:56:27;;;;;;;7.30;5.40;;;19.50;99.90;;;;;;5090798;28;20202;-84
2022/06/27 08:58:55;;;;;;;9.93;6.73;;;19.70;99.90;;;;;;5088060;28;20194;-84
2022/06/27 09:01:23;;;;;;;10.27;6.77;;;19.80;99.90;;;;;;5091743;28;20191;-84
2022/06/27 09:04:11;;;;;;;9.60;6.77;;;19.80;99.90;;;;;;5082843;28;20225;-82
2022/06/27 09:06:42;;;;;;;9.73;6.40;;;19.60;99.90;;;;;;5087464;28;20270;-83
2022/06/27 09:09:11;;;;;;;9.17;6.47;;;19.60;99.90;;;;;;5089526;28;20219;-84
2022/06/27 09:11:42;;;;;;;7.80;6.57;;;19.60;99.90;;;;;;5086954;28;20697;-83
2022/06/27 09:14:41;;;;;;;9.13;5.80;;;19.70;99.90;;;;;;5087169;28;20202;-84
2022/06/27 09:17:14;;;;;;;6.50;5.23;;;20.00;99.90;;;;;;5082636;28;20531;-83
2022/06/27 09:19:55;;;;;;;9.33;5.70;;;20.20;99.90;;;;;;5087156;28;20242;-83
2022/06/27 09:22:28;;;;;;;5.83;5.23;;;20.40;99.90;;;;;;5083648;28;20205;-83
2022/06/27 09:25:06;;;;;;;10.73;5.73;;;20.40;99.90;;;;;;5086503;28;20767;-84
2022/06/27 09:27:37;;;;;;;7.10;5.33;;;20.30;99.90;;;;;;5087123;28;20306;-82
2022/06/27 09:30:29;;;;;;;7.27;4.40;;;20.30;99.90;;;;;;5088694;28;20200;-84
2022/06/27 09:32:59;;;;;;;6.07;4.20;;;20.00;99.90;;;;;;5087612;28;20949;-84
2022/06/27 09:35:31;;;;;;;6.20;4.13;;;20.00;66.90;;;;;;5093446;28;20211;-85
2022/06/27 09:38:10;;;;;;;6.43;4.43;;;20.10;98.70;;;;;;5093586;28;20650;-84
2022/06/27 09:40:40;;;;;;;7.73;5.00;;;20.20;99.90;;;;;;5092051;28;20207;-84
2022/06/27 09:43:12;;;;;;;6.93;4.53;;;20.20;99.90;;;;;;5094301;28;20195;-85
2022/06/27 09:45:41;;;;;;;7.10;4.93;;;20.30;99.90;;;;;;5096494;28;20202;-86
2022/06/27 09:48:16;;;;;;;9.43;5.40;;;20.30;99.90;;;;;;5093249;28;20579;-86
2022/06/27 09:50:44;;;;;;;11.93;5.50;;;20.30;99.90;;;;;;5090253;28;20226;-85
2022/06/27 09:53:11;;;;;;;8.73;5.27;;;20.30;99.90;;;;;;5091725;28;20226;-86
2022/06/27 09:55:42;;;;;;;9.20;5.20;;;20.30;99.90;;;;;;5093017;28;20219;-83
2022/06/27 09:58:11;;;;;;;7.97;5.67;;;20.30;99.90;;;;;;5094718;28;20195;-84
2022/06/27 10:00:40;;;;;;;8.93;5.93;;;20.40;99.90;;;;;;5084350;28;20201;-84
2022/06/27 10:03:07;;;;;;;9.03;5.70;;;20.40;99.90;;;;;;5087509;28;20264;-85
2022/06/27 10:05:41;;;;;;;10.87;5.93;;;20.50;99.90;;;;;;5091455;28;20203;-85
2022/06/27 10:08:09;;;;;;;9.87;5.40;;;20.60;99.90;;;;;;5086848;28;20282;-85
2022/06/27 10:11:00;;;;;;;8.03;5.50;;;20.70;99.90;;;;;;5089298;28;20211;-85
2022/06/27 10:13:31;;;;;;;8.27;4.00;;;20.70;96.10;;;;;;5101608;27;20224;-85
2022/06/27 10:15:59;;;;;;;7.17;4.37;;;20.60;99.90;;;;;;5085430;28;20674;-85
2022/06/27 10:18:26;;;;;;;8.37;4.30;;;20.70;99.90;;;;;;5090534;28;20535;-85
2022/06/27 10:20:52;;;;;;;6.63;4.30;;;20.70;99.90;;;;;;5085558;28;20618;-85
2022/06/27 10:23:31;;;;;;;6.40;4.20;;;20.70;92.50;;;;;;5088378;28;20199;-84
2022/06/27 10:25:58;;;;;;;8.30;4.97;;;20.70;26.10;;;;;;5103355;28;20272;-84
2022/06/27 10:28:26;;;;;;;5.77;4.40;;;20.70;1.00;;;;;;5087506;28;20199;-85
2022/06/27 10:30:54;;;;;;;9.37;5.37;;;20.80;83.00;;;;;;5088439;28;20641;-85
2022/06/27 10:33:20;;;;;;;11.57;4.93;;;21.00;80.10;;;;;;5086141;28;20198;-84
2022/06/27 10:38:25;;;;;;;4.87;4.37;;;21.00;25.00;;;;;;5092908;28;20213;-85
2022/06/27 10:40:57;;;;;;;8.90;4.20;;;21.10;19.10;;;;;;5089812;28;20205;-84
2022/06/27 10:43:36;;;;;;;7.83;3.90;;;20.90;43.10;;;;;;5100481;28;20220;-82
2022/06/27 10:46:09;;;;;;;8.27;5.70;;;21.00;92.20;;;;;;5086246;28;20218;-83
2022/06/27 10:48:38;;;;;;;8.93;4.80;;;21.10;96.00;;;;;;5087173;28;20198;-83
2022/06/27 10:51:26;;;;;;;6.40;4.83;;;21.20;99.70;;;;;;5108014;28;20320;-83
2022/06/27 10:54:05;;;;;;;7.47;3.90;;;21.30;61.50;;;;;;5099467;28;20334;-83
2022/06/27 10:56:46;;;;;;;6.83;4.70;;;21.30;90.90;;;;;;5095252;28;20206;-85
2022/06/27 10:59:13;;;;;;;6.97;4.70;;;21.00;2.10;;;;;;5095283;28;20195;-86
2022/06/27 11:01:49;;;;;;;8.43;4.97;;;20.60;94.40;;;;;;5093429;28;20206;-84
2022/06/27 11:04:31;;;;;;;7.53;4.73;;;20.50;99.90;;;;;;5089784;28;20209;-84
2022/06/27 11:07:00;;;;;;;8.03;5.10;;;20.70;99.90;;;;;;5087998;28;20206;-85
2022/06/27 11:09:40;;;;;;;7.77;5.33;;;20.70;99.90;;;;;;5092404;28;20209;-84
2022/06/27 11:12:09;;;;;;;5.43;4.70;;;20.60;99.90;;;;;;5091422;28;20580;-83
2022/06/27 11:14:53;;;;;;;7.27;4.43;;;20.50;99.90;;;;;;5093276;28;20211;-84
2022/06/27 11:17:27;;;;;;;7.07;4.90;;;20.60;99.90;;;;;;5091897;28;20191;-84
2022/06/27 11:20:14;;;;;;;6.20;4.23;;;20.70;99.90;;;;;;5090828;28;20203;-85
2022/06/27 11:23:03;;;;;;;6.23;3.93;;;20.70;90.20;;;;;;5088032;28;20205;-84
2022/06/27 11:25:31;;;;;;;7.60;3.30;;;20.60;98.20;;;;;;5074210;28;20202;-85
2022/06/27 11:31:57;;;;;;;4.60;4.07;;;20.70;99.30;;;;;;5085354;28;20213;-84
2022/06/27 11:33:40;;;;;;;5.73;3.90;;;20.60;27.10;;;;;;5091774;28;20666;-83
2022/06/27 11:36:10;;;;;;;6.83;4.47;;;20.60;51.60;;;;;;5090253;28;20200;-84
2022/06/27 11:38:46;;;;;;;9.20;4.30;;;20.40;40.80;;;;;;5089482;28;20257;-83
2022/06/27 11:41:24;;;;;;;6.17;4.20;;;20.10;19.90;;;;;;5086115;28;20202;-84
2022/06/27 11:43:56;;;;;;;5.87;4.13;;;20.10;35.20;;;;;;5109569;27;20299;-83
2022/06/27 11:46:29;;;;;;;6.37;4.00;;;20.20;64.40;;;;;;5087038;28;20217;-84
2022/06/27 11:49:09;;;;;;;7.00;3.90;;;20.20;80.50;;;;;;5085946;28;20578;-83
2022/06/27 11:51:38;;;;;;;6.53;3.80;;;20.20;99.90;;;;;;5090672;28;20316;-84
2022/06/27 11:54:11;;;;;;;6.20;3.77;;;20.10;99.90;;;;;;5088880;28;20243;-84
2022/06/27 11:56:41;;;;;;;7.90;4.90;;;20.10;99.90;;;;;;5087938;28;20282;-84
2022/06/27 11:59:11;;;;;;;8.13;3.70;;;19.40;99.90;;;;;;5088201;28;20201;-83
2022/06/27 12:01:51;;;;;;;5.77;3.50;;;18.50;99.90;;;;;;5087932;28;20572;-83
2022/06/27 12:04:20;;;;;;;6.83;3.80;;;18.20;99.90;;;;;;5087198;28;20227;-83
2022/06/27 12:07:05;;;;;;;5.87;3.83;;;18.00;99.90;;;;;;5087800;28;20773;-83
2022/06/27 12:09:46;;;;;;;8.93;4.17;;;17.90;99.90;;;;;;5085169;28;20604;-83
2022/06/27 12:12:22;;;;;;;4.10;3.70;;;17.90;99.90;;;;;;5089687;28;20334;-83
2022/06/27 12:14:50;;;;;;;5.47;3.83;;;17.90;99.90;;;;;;5087781;28;20207;-84
2022/06/27 12:17:18;;;;;;;10.07;3.40;;;17.70;99.90;;;;;;5086655;28;20727;-84
2022/06/27 12:19:45;;;;;;;4.93;3.43;;;17.50;99.90;;;;;;5088763;28;20707;-87
2022/06/27 12:22:18;;;;;;;4.63;3.30;;;17.50;99.90;;;;;;5087934;28;20194;-85
2022/06/27 12:25:05;;;;;;;6.70;3.70;;;17.40;99.90;;;;;;5089175;28;20224;-85
2022/06/27 12:27:32;;;;;;;6.77;3.77;;;17.50;99.90;;;;;;5085475;28;20200;-83
2022/06/27 12:29:59;;;;;;;5.27;3.40;;;17.60;99.90;;;;;;5085186;28;20215;-82
2022/06/27 12:32:26;;;;;;;8.80;3.90;;;17.60;99.90;;;;;;5083462;28;20584;-83
2022/06/27 12:34:52;;;;;;;5.87;3.77;;;17.70;99.90;;;;;;5083717;28;20249;-85
2022/06/27 12:37:19;;;;;;;7.20;3.60;;;17.50;99.90;;;;;;5085321;28;20204;-84
2022/06/27 12:39:46;;;;;;;5.03;3.10;;;17.50;99.90;;;;;;5082615;28;20286;-82
2022/06/27 12:42:13;;;;;;;4.33;3.30;;;17.50;99.90;;;;;;5086168;28;20275;-83
2022/06/27 12:44:41;;;;;;;6.03;3.50;;;17.50;99.90;;;;;;5059312;28;20650;-83
2022/06/27 12:47:08;;;;;;;6.77;3.20;;;17.60;99.90;;;;;;5090738;28;20229;-83
2022/06/27 12:49:36;;;;;;;10.13;3.53;;;17.60;99.90;;;;;;5054675;28;20192;-83
2022/06/27 12:52:04;;;;;;;4.73;3.50;;;17.60;99.90;;;;;;5084383;28;21859;-85
2022/06/27 12:54:31;;;;;;;5.77;3.40;;;17.50;99.90;;;;;;5055351;28;20231;-83
2022/06/27 12:56:58;;;;;;;6.17;2.70;;;17.60;99.90;;;;;;5078943;28;20631;-83
2022/06/27 12:59:25;;;;;;;4.10;2.83;;;17.40;99.90;;;;;;5068089;28;20196;-83
2022/06/27 13:01:52;;;;;;;4.70;3.00;;;17.30;99.90;;;;;;5069392;28;20622;-81